Time;durP1;ratioP1;P1;durP2;ratioP2;P2;SDS_P1;SDS_P2;PMS_P1;PMS_P2;Temp;Humidity;BMP_temperature;BMP_pressure;BME280_temperature;BME280_humidity;BME280_pressure;Samples;Min_cycle;Max_cycle;Signal;HPM_P1;HPM_P2
2021/01/15 00:01:21;;;;;;;4.80;3.73;;;-0.20;99.90;;;;;;6209609;28;20208;-82
2021/01/15 00:04:23;;;;;;;5.17;3.87;;;-0.20;99.90;;;;;;6210559;28;20627;-81
2021/01/15 00:07:28;;;;;;;4.87;3.30;;;-0.10;99.90;;;;;;6211545;28;20209;-81
2021/01/15 00:10:30;;;;;;;4.30;3.60;;;-0.10;99.90;;;;;;6211109;28;20339;-82
2021/01/15 00:13:32;;;;;;;5.93;3.37;;;-0.10;99.90;;;;;;6215169;28;20265;-82
2021/01/15 00:16:34;;;;;;;6.83;3.93;;;-0.10;99.90;;;;;;6219469;28;20200;-82
2021/01/15 00:19:36;;;;;;;5.77;3.80;;;-0.10;99.90;;;;;;6235770;28;20227;-82
2021/01/15 00:22:43;;;;;;;6.20;3.60;;;-0.10;99.90;;;;;;6240123;28;20223;-82
2021/01/15 00:25:46;;;;;;;4.93;3.40;;;-0.10;99.90;;;;;;6225499;28;20263;-82
2021/01/15 00:28:48;;;;;;;4.73;3.67;;;-0.10;99.90;;;;;;6199369;28;20267;-81
2021/01/15 00:31:50;;;;;;;4.80;3.43;;;-0.10;99.90;;;;;;6200093;28;20220;-82
2021/01/15 00:34:52;;;;;;;6.30;4.20;;;-0.10;99.90;;;;;;6214839;28;20721;-82
2021/01/15 00:37:54;;;;;;;8.30;4.33;;;-0.10;99.90;;;;;;6211684;28;20204;-81
2021/01/15 00:41:01;;;;;;;4.17;3.60;;;-0.10;99.90;;;;;;6211762;28;20236;-82
2021/01/15 00:44:04;;;;;;;5.93;3.80;;;-0.10;99.90;;;;;;6214002;28;20219;-82
2021/01/15 00:47:06;;;;;;;5.43;3.70;;;-0.10;99.90;;;;;;6206214;28;20211;-81
2021/01/15 00:50:09;;;;;;;4.87;3.30;;;-0.10;99.90;;;;;;6204972;28;20239;-81
2021/01/15 00:53:11;;;;;;;6.83;4.00;;;0.00;99.90;;;;;;6204084;28;20549;-81
2021/01/15 00:56:17;;;;;;;4.53;3.63;;;0.00;99.90;;;;;;6205763;28;20212;-81
2021/01/15 00:59:19;;;;;;;4.87;3.13;;;0.00;99.90;;;;;;6209751;28;20208;-82
2021/01/15 01:02:40;;;;;;;4.67;3.20;;;0.00;99.90;;;;;;6209251;28;20209;-81
2021/01/15 01:05:42;;;;;;;7.70;4.77;;;0.00;99.90;;;;;;6209506;28;20244;-81
2021/01/15 01:08:44;;;;;;;4.37;3.63;;;0.00;99.90;;;;;;6210682;28;20215;-81
2021/01/15 01:11:47;;;;;;;8.53;4.30;;;0.00;99.90;;;;;;6211590;28;20213;-83
2021/01/15 01:14:49;;;;;;;7.20;4.37;;;-0.10;99.90;;;;;;6219457;28;20575;-82
2021/01/15 01:17:52;;;;;;;6.43;4.27;;;-0.10;99.90;;;;;;6226842;28;20299;-82
2021/01/15 01:20:54;;;;;;;6.10;4.50;;;-0.20;99.90;;;;;;6235801;28;20561;-81
2021/01/15 01:23:56;;;;;;;4.90;3.70;;;-0.20;99.90;;;;;;6234673;28;20200;-81
2021/01/15 01:26:58;;;;;;;5.80;4.40;;;-0.30;99.90;;;;;;6233941;28;20247;-82
2021/01/15 01:30:00;;;;;;;6.67;4.40;;;-0.30;99.90;;;;;;6227615;28;20204;-82
2021/01/15 01:33:03;;;;;;;8.30;4.50;;;-0.20;99.90;;;;;;6226983;28;20226;-81
2021/01/15 01:36:06;;;;;;;8.80;4.77;;;-0.20;99.90;;;;;;6227103;28;20743;-82
2021/01/15 01:39:08;;;;;;;6.60;4.83;;;-0.20;99.90;;;;;;6226130;28;20214;-81
2021/01/15 01:42:10;;;;;;;6.17;4.87;;;-0.10;99.90;;;;;;6226303;28;20341;-81
2021/01/15 01:45:12;;;;;;;8.53;4.70;;;-0.10;99.90;;;;;;6232759;28;20695;-82
2021/01/15 01:48:16;;;;;;;6.00;4.93;;;-0.10;99.90;;;;;;6236756;28;20203;-82
2021/01/15 01:51:18;;;;;;;6.27;4.57;;;-0.10;99.90;;;;;;6238316;28;20200;-82
2021/01/15 01:54:20;;;;;;;10.20;5.20;;;-0.10;99.90;;;;;;6238237;28;20227;-81
2021/01/15 01:57:22;;;;;;;7.43;4.87;;;-0.10;99.90;;;;;;6239415;28;20199;-81
2021/01/15 02:00:24;;;;;;;9.30;5.23;;;-0.10;99.90;;;;;;6237718;28;20223;-81
2021/01/15 02:03:27;;;;;;;7.70;4.70;;;-0.10;99.90;;;;;;6237956;28;20196;-81
2021/01/15 02:06:31;;;;;;;8.70;4.40;;;-0.10;99.90;;;;;;6239478;28;20204;-81
2021/01/15 02:09:46;;;;;;;8.17;4.77;;;-0.10;99.90;;;;;;6238412;28;20669;-82
2021/01/15 02:12:57;;;;;;;6.30;4.73;;;-0.10;99.90;;;;;;6237425;28;20625;-81
2021/01/15 02:16:03;;;;;;;7.27;4.17;;;-0.10;99.90;;;;;;6221089;28;20310;-81
2021/01/15 02:19:14;;;;;;;7.73;5.30;;;-0.10;99.90;;;;;;6213767;28;21035;-81
2021/01/15 02:22:44;;;;;;;8.23;4.77;;;-0.10;99.90;;;;;;6227142;28;20278;-81
2021/01/15 02:26:05;;;;;;;6.80;4.70;;;-0.10;99.90;;;;;;6241741;28;20236;-81
2021/01/15 02:29:17;;;;;;;8.90;4.63;;;-0.10;99.90;;;;;;6226402;28;20698;-81
2021/01/15 02:32:27;;;;;;;7.30;4.57;;;0.00;99.90;;;;;;6227340;28;20228;-81
2021/01/15 02:35:38;;;;;;;5.93;4.20;;;0.00;99.90;;;;;;6228899;28;20208;-81
2021/01/15 02:38:59;;;;;;;7.03;4.43;;;-0.10;99.90;;;;;;6241484;28;21024;-81
2021/01/15 02:42:02;;;;;;;7.67;4.70;;;-0.10;99.90;;;;;;6225833;28;20208;-81
2021/01/15 02:45:09;;;;;;;5.67;3.87;;;-0.10;99.90;;;;;;6228021;28;20235;-81
2021/01/15 02:48:16;;;;;;;7.10;4.50;;;-0.10;99.90;;;;;;6225873;28;20747;-81
2021/01/15 02:51:19;;;;;;;7.23;5.27;;;-0.10;99.90;;;;;;6226167;28;20200;-81
2021/01/15 02:54:21;;;;;;;7.20;4.97;;;-0.10;99.90;;;;;;6226696;28;20216;-81
2021/01/15 02:57:23;;;;;;;6.00;4.40;;;-0.10;99.90;;;;;;6226477;28;20664;-81
2021/01/15 03:00:25;;;;;;;7.30;4.30;;;-0.10;99.90;;;;;;6226577;28;20612;-81
2021/01/15 03:03:51;;;;;;;5.50;4.23;;;-0.10;99.90;;;;;;6226750;28;20824;-81
2021/01/15 03:06:58;;;;;;;7.77;4.40;;;-0.10;99.90;;;;;;6225132;28;20192;-81
2021/01/15 03:10:03;;;;;;;6.27;4.33;;;-0.10;99.90;;;;;;6224792;28;20196;-81
2021/01/15 03:13:06;;;;;;;7.40;4.73;;;-0.10;99.90;;;;;;6225097;28;20236;-81
2021/01/15 03:16:09;;;;;;;7.40;4.43;;;-0.10;99.90;;;;;;6201751;28;20610;-81
2021/01/15 03:19:12;;;;;;;5.47;3.80;;;-0.10;99.90;;;;;;6214084;28;20772;-81
2021/01/15 03:22:17;;;;;;;5.10;4.13;;;-0.10;99.90;;;;;;6226799;28;20719;-81
2021/01/15 03:25:20;;;;;;;7.60;4.70;;;-0.10;99.90;;;;;;6225879;28;20489;-81
2021/01/15 03:28:22;;;;;;;4.70;4.10;;;-0.10;99.90;;;;;;6208236;28;20361;-81
2021/01/15 03:31:24;;;;;;;8.50;4.50;;;-0.10;99.90;;;;;;6226344;28;20294;-81
2021/01/15 03:34:26;;;;;;;5.63;4.57;;;-0.10;99.90;;;;;;6226896;28;20577;-81
2021/01/15 03:37:28;;;;;;;5.90;4.10;;;-0.10;99.90;;;;;;6226035;28;20215;-81
2021/01/15 03:40:42;;;;;;;8.67;5.03;;;-0.10;99.90;;;;;;6224123;28;20195;-81
2021/01/15 03:43:44;;;;;;;7.90;4.40;;;-0.10;99.90;;;;;;6227313;28;20196;-81
2021/01/15 03:46:46;;;;;;;7.67;5.20;;;-0.10;99.90;;;;;;6225752;28;20789;-81
2021/01/15 03:49:48;;;;;;;7.27;4.63;;;-0.10;99.90;;;;;;6208354;28;20224;-81
2021/01/15 03:52:49;;;;;;;7.50;5.13;;;-0.10;99.90;;;;;;6200786;28;20780;-81
2021/01/15 03:55:51;;;;;;;8.50;4.50;;;-0.10;99.90;;;;;;6183610;28;20216;-81
2021/01/15 03:58:53;;;;;;;7.83;5.03;;;-0.10;99.90;;;;;;6199767;28;20301;-81
2021/01/15 04:01:55;;;;;;;6.83;4.70;;;-0.20;99.90;;;;;;6200893;28;20570;-81
2021/01/15 04:04:57;;;;;;;7.23;4.53;;;-0.10;99.90;;;;;;6200942;28;20212;-81
2021/01/15 04:07:59;;;;;;;7.70;4.97;;;-0.10;99.90;;;;;;6200326;28;20255;-81
2021/01/15 04:11:01;;;;;;;6.90;4.80;;;-0.10;99.90;;;;;;6199361;28;20204;-81
2021/01/15 04:14:03;;;;;;;5.77;4.40;;;-0.10;99.90;;;;;;6214625;28;20232;-81
2021/01/15 04:17:05;;;;;;;7.17;5.00;;;-0.10;99.90;;;;;;6230411;28;20219;-81
2021/01/15 04:20:09;;;;;;;8.20;4.73;;;-0.10;99.90;;;;;;6210420;28;20781;-80
2021/01/15 04:23:11;;;;;;;7.67;4.40;;;-0.10;99.90;;;;;;6206221;28;20204;-81
2021/01/15 04:26:20;;;;;;;7.87;5.30;;;-0.10;99.90;;;;;;6223291;28;20235;-81
2021/01/15 04:29:23;;;;;;;6.13;4.67;;;-0.10;99.90;;;;;;6229512;28;20211;-81
2021/01/15 04:32:25;;;;;;;9.43;5.30;;;-0.10;99.90;;;;;;6232761;28;20660;-80
2021/01/15 04:35:27;;;;;;;7.07;4.93;;;-0.10;99.90;;;;;;6236966;28;20250;-80
2021/01/15 04:38:28;;;;;;;8.90;5.47;;;-0.10;99.90;;;;;;6236422;28;20248;-81
2021/01/15 04:41:31;;;;;;;7.17;5.37;;;-0.10;99.90;;;;;;6236549;28;20218;-81
2021/01/15 04:44:33;;;;;;;7.40;5.30;;;-0.10;99.90;;;;;;6219267;28;20561;-81
2021/01/15 04:47:42;;;;;;;7.63;5.27;;;-0.10;99.90;;;;;;6238974;28;20211;-81
2021/01/15 04:50:44;;;;;;;9.13;5.40;;;-0.10;99.90;;;;;;6245771;28;20303;-81
2021/01/15 04:54:01;;;;;;;8.37;5.53;;;-0.10;99.90;;;;;;6212120;28;20224;-81
2021/01/15 04:57:10;;;;;;;6.13;4.70;;;-0.10;99.90;;;;;;6197435;28;20575;-81
2021/01/15 05:00:15;;;;;;;7.23;5.23;;;-0.10;99.90;;;;;;6212288;28;20294;-80
2021/01/15 05:03:23;;;;;;;9.53;6.00;;;-0.10;99.90;;;;;;6214629;28;20201;-81
2021/01/15 05:06:31;;;;;;;9.07;6.07;;;-0.10;99.90;;;;;;6212418;28;20205;-81
2021/01/15 05:09:56;;;;;;;6.63;5.23;;;-0.10;99.90;;;;;;6215021;28;20574;-81
2021/01/15 05:12:59;;;;;;;8.93;5.93;;;-0.10;99.90;;;;;;6211840;28;20224;-81
2021/01/15 05:16:03;;;;;;;8.20;5.97;;;-0.20;99.90;;;;;;6203923;28;20197;-81
2021/01/15 05:19:07;;;;;;;7.83;5.60;;;-0.20;99.90;;;;;;6216436;28;20208;-81
2021/01/15 05:22:10;;;;;;;7.23;5.43;;;-0.20;99.90;;;;;;6229550;28;20239;-81
2021/01/15 05:25:12;;;;;;;8.07;6.00;;;-0.20;99.90;;;;;;6229328;28;20747;-81
2021/01/15 05:28:18;;;;;;;6.70;5.57;;;-0.20;99.90;;;;;;6212563;28;20564;-81
2021/01/15 05:31:21;;;;;;;10.07;5.93;;;-0.20;99.90;;;;;;6229336;28;20829;-81
2021/01/15 05:34:28;;;;;;;8.47;5.70;;;-0.20;99.90;;;;;;6227963;28;20215;-80
2021/01/15 05:37:30;;;;;;;10.23;6.23;;;-0.20;99.90;;;;;;6213314;28;20203;-81
2021/01/15 05:40:37;;;;;;;10.30;6.63;;;-0.20;99.90;;;;;;6228021;28;20211;-81
2021/01/15 05:43:43;;;;;;;6.63;5.47;;;-0.20;99.90;;;;;;6226858;28;20279;-80
2021/01/15 05:46:48;;;;;;;8.13;5.93;;;-0.20;99.90;;;;;;6244956;28;20273;-81
2021/01/15 05:49:56;;;;;;;9.03;6.43;;;-0.20;99.90;;;;;;6230004;28;20219;-80
2021/01/15 05:53:01;;;;;;;8.90;6.03;;;-0.20;99.90;;;;;;6204061;28;20224;-80
2021/01/15 05:56:04;;;;;;;8.07;5.60;;;-0.20;99.90;;;;;;6190903;28;20265;-81
2021/01/15 05:59:16;;;;;;;10.57;7.17;;;-0.30;99.90;;;;;;6206622;28;20224;-81
2021/01/15 06:02:19;;;;;;;11.60;6.90;;;-0.30;99.90;;;;;;6205596;28;20197;-81
2021/01/15 06:05:23;;;;;;;9.50;7.37;;;-0.30;99.90;;;;;;6204306;28;20200;-81
2021/01/15 06:08:40;;;;;;;10.97;6.30;;;-0.30;99.90;;;;;;6189387;28;20985;-80
2021/01/15 06:11:42;;;;;;;9.10;6.80;;;-0.30;99.90;;;;;;6206024;28;20228;-81
2021/01/15 06:14:58;;;;;;;9.50;6.73;;;-0.30;99.90;;;;;;6204100;28;20205;-80
2021/01/15 06:18:01;;;;;;;9.77;6.47;;;-0.30;99.90;;;;;;6205190;28;20212;-81
2021/01/15 06:21:08;;;;;;;9.60;6.73;;;-0.30;99.90;;;;;;6205703;28;20308;-80
2021/01/15 06:24:10;;;;;;;10.00;6.90;;;-0.30;99.90;;;;;;6204979;28;20205;-80
2021/01/15 06:27:15;;;;;;;9.27;6.80;;;-0.40;99.90;;;;;;6205654;28;20263;-80
2021/01/15 06:30:19;;;;;;;13.30;7.60;;;-0.40;99.90;;;;;;6205285;28;20209;-80
2021/01/15 06:33:21;;;;;;;8.40;6.47;;;-0.40;99.90;;;;;;6204519;28;20232;-80
2021/01/15 06:36:53;;;;;;;9.93;7.00;;;-0.40;99.90;;;;;;6204202;28;20588;-80
2021/01/15 06:40:15;;;;;;;9.73;7.03;;;-0.40;99.90;;;;;;6201739;28;20209;-81
2021/01/15 06:43:28;;;;;;;9.60;6.70;;;-0.40;99.90;;;;;;6205361;28;20205;-80
2021/01/15 06:46:37;;;;;;;11.00;7.70;;;-0.40;99.90;;;;;;6206644;28;20586;-81
2021/01/15 06:49:48;;;;;;;11.70;7.47;;;-0.40;99.90;;;;;;6219608;28;20605;-81
2021/01/15 06:52:50;;;;;;;12.17;7.23;;;-0.40;99.90;;;;;;6228633;28;20228;-80
2021/01/15 06:55:57;;;;;;;11.30;7.33;;;-0.30;99.90;;;;;;6227800;28;20207;-81
2021/01/15 06:59:14;;;;;;;12.00;7.47;;;-0.40;99.90;;;;;;6228144;28;20200;-80
2021/01/15 07:02:38;;;;;;;13.03;8.00;;;-0.30;99.90;;;;;;6227821;28;20234;-81
2021/01/15 07:05:46;;;;;;;11.03;7.57;;;-0.30;99.90;;;;;;6211282;28;20222;-81
2021/01/15 07:08:53;;;;;;;9.27;7.20;;;-0.30;99.90;;;;;;6229112;28;20381;-80
2021/01/15 07:11:55;;;;;;;10.33;7.43;;;-0.30;99.90;;;;;;6227515;28;20196;-80
2021/01/15 07:14:59;;;;;;;10.73;8.20;;;-0.30;99.90;;;;;;6212828;28;20200;-80
2021/01/15 07:18:11;;;;;;;11.43;8.40;;;-0.30;99.90;;;;;;6202522;28;20276;-80
2021/01/15 07:21:21;;;;;;;9.80;7.47;;;-0.30;99.90;;;;;;6187542;28;20217;-80
2021/01/15 07:24:32;;;;;;;11.23;7.80;;;-0.30;99.90;;;;;;6203410;28;20204;-81
2021/01/15 07:27:34;;;;;;;11.43;7.33;;;-0.20;99.90;;;;;;6202736;28;20254;-81
2021/01/15 07:30:36;;;;;;;13.50;8.30;;;-0.20;99.90;;;;;;6203066;28;20201;-81
2021/01/15 07:33:38;;;;;;;11.27;7.37;;;-0.20;99.90;;;;;;6203567;28;20216;-81
2021/01/15 07:36:40;;;;;;;12.53;7.40;;;-0.20;99.90;;;;;;6203973;28;20232;-81
2021/01/15 07:40:17;;;;;;;12.80;7.40;;;-0.20;99.90;;;;;;6203423;28;20219;-80
2021/01/15 07:43:35;;;;;;;10.87;7.53;;;-0.20;99.90;;;;;;6203915;28;20201;-80
2021/01/15 07:46:55;;;;;;;11.40;8.23;;;-0.10;99.90;;;;;;6205416;28;20212;-80
2021/01/15 07:49:58;;;;;;;11.13;7.57;;;-0.10;99.90;;;;;;6204479;28;20217;-80
2021/01/15 07:53:12;;;;;;;11.80;8.00;;;-0.20;99.90;;;;;;6204073;28;20232;-80
2021/01/15 07:56:25;;;;;;;10.60;8.03;;;-0.10;99.90;;;;;;6204708;28;20448;-80
2021/01/15 07:59:30;;;;;;;13.37;8.17;;;-0.10;99.90;;;;;;6204945;28;20215;-81
2021/01/15 08:02:32;;;;;;;13.93;8.83;;;-0.10;99.90;;;;;;6204723;28;20272;-81
2021/01/15 08:05:34;;;;;;;11.30;9.07;;;-0.10;99.90;;;;;;6204165;28;20569;-80
2021/01/15 08:08:41;;;;;;;14.07;8.83;;;-0.10;99.90;;;;;;6205213;28;20201;-80
2021/01/15 08:11:56;;;;;;;14.77;8.97;;;-0.10;99.90;;;;;;6209442;28;20708;-80
2021/01/15 08:14:59;;;;;;;14.20;8.47;;;0.00;99.90;;;;;;6216522;28;20563;-81
2021/01/15 08:18:04;;;;;;;11.60;8.60;;;0.00;99.90;;;;;;6194771;28;20207;-80
2021/01/15 08:21:06;;;;;;;13.07;9.43;;;0.10;99.90;;;;;;6234290;28;20258;-81
2021/01/15 08:24:09;;;;;;;12.73;8.67;;;0.10;99.90;;;;;;6234051;28;20691;-81
2021/01/15 08:27:21;;;;;;;10.43;7.90;;;0.20;99.90;;;;;;6233835;28;20254;-80
2021/01/15 08:30:24;;;;;;;14.43;9.23;;;0.30;99.90;;;;;;6233538;28;20731;-80
2021/01/15 08:33:27;;;;;;;11.57;9.07;;;0.40;99.90;;;;;;6234257;28;20830;-80
2021/01/15 08:36:29;;;;;;;14.10;8.80;;;0.40;99.90;;;;;;6230979;28;20385;-80
2021/01/15 08:39:53;;;;;;;12.00;8.67;;;0.50;99.90;;;;;;6233178;28;20282;-80
2021/01/15 08:42:58;;;;;;;13.53;9.27;;;0.60;99.90;;;;;;6232616;28;20211;-80
2021/01/15 08:46:01;;;;;;;11.70;8.73;;;0.60;99.90;;;;;;6234652;28;20219;-80
2021/01/15 08:49:08;;;;;;;11.73;8.10;;;0.60;99.90;;;;;;6235137;28;20212;-80
2021/01/15 08:52:15;;;;;;;11.63;8.33;;;0.70;99.90;;;;;;6218303;28;20219;-80
2021/01/15 08:55:21;;;;;;;14.57;8.23;;;0.70;99.90;;;;;;6233961;28;20220;-81
2021/01/15 08:58:25;;;;;;;13.23;7.67;;;0.80;99.90;;;;;;6234577;28;20214;-81
2021/01/15 09:01:29;;;;;;;13.30;8.80;;;1.00;99.90;;;;;;6234411;28;20199;-80
2021/01/15 09:04:35;;;;;;;12.27;8.93;;;1.10;99.90;;;;;;6235056;28;20204;-80
2021/01/15 09:07:45;;;;;;;12.40;8.30;;;1.30;99.90;;;;;;6234265;28;20191;-80
2021/01/15 09:10:48;;;;;;;11.00;8.70;;;1.40;99.90;;;;;;6234935;28;20200;-80
2021/01/15 09:13:53;;;;;;;10.53;8.10;;;1.50;99.90;;;;;;6228087;28;20591;-80
2021/01/15 09:16:55;;;;;;;10.60;7.90;;;1.60;99.90;;;;;;6211145;28;20216;-81
2021/01/15 09:19:57;;;;;;;11.17;7.37;;;1.70;99.90;;;;;;6221550;28;20240;-81
2021/01/15 09:23:00;;;;;;;12.07;8.37;;;1.80;99.90;;;;;;6211533;28;20215;-80
2021/01/15 09:26:02;;;;;;;10.97;8.40;;;1.80;99.90;;;;;;6193625;28;20239;-81
2021/01/15 09:29:03;;;;;;;12.07;7.90;;;1.90;99.90;;;;;;6211356;28;20543;-80
2021/01/15 09:32:05;;;;;;;11.40;8.40;;;2.00;99.90;;;;;;6211390;28;20375;-81
2021/01/15 09:35:09;;;;;;;12.57;7.70;;;2.10;99.90;;;;;;6212528;28;20201;-80
2021/01/15 09:38:10;;;;;;;14.17;8.70;;;2.20;99.90;;;;;;6210813;28;20196;-80
2021/01/15 09:41:12;;;;;;;9.70;7.60;;;2.20;99.90;;;;;;6209901;28;20203;-80
2021/01/15 09:44:16;;;;;;;11.90;8.10;;;2.30;99.90;;;;;;6189948;28;20211;-80
2021/01/15 09:47:18;;;;;;;9.27;7.30;;;2.40;99.90;;;;;;6204615;28;20278;-80
2021/01/15 09:50:20;;;;;;;10.47;7.30;;;2.50;99.90;;;;;;6199143;28;20741;-80
2021/01/15 09:53:22;;;;;;;12.17;7.77;;;2.60;99.90;;;;;;6218894;28;20580;-80
2021/01/15 09:56:29;;;;;;;11.47;8.23;;;2.70;99.90;;;;;;6217763;28;20584;-80
2021/01/15 09:59:31;;;;;;;9.07;6.93;;;2.60;99.90;;;;;;6202812;28;20554;-80
2021/01/15 10:02:33;;;;;;;11.23;7.87;;;2.70;99.90;;;;;;6201271;28;20299;-80
2021/01/15 10:05:35;;;;;;;11.20;8.03;;;2.70;99.90;;;;;;6202928;28;20706;-79
2021/01/15 10:08:37;;;;;;;14.10;8.47;;;2.90;99.90;;;;;;6218095;28;20197;-80
2021/01/15 10:11:42;;;;;;;12.07;7.30;;;3.10;99.90;;;;;;6202384;28;20209;-80
2021/01/15 10:14:45;;;;;;;11.37;7.87;;;3.30;99.90;;;;;;6217388;28;20339;-80
2021/01/15 10:17:47;;;;;;;8.93;7.93;;;3.30;99.90;;;;;;6201473;28;20689;-80
2021/01/15 10:20:50;;;;;;;10.37;6.80;;;3.30;99.90;;;;;;6211484;28;20226;-80
2021/01/15 10:23:52;;;;;;;11.40;7.10;;;3.20;99.90;;;;;;6209999;28;20278;-80
2021/01/15 10:26:55;;;;;;;10.83;7.53;;;3.10;99.90;;;;;;6210119;28;20237;-82
2021/01/15 10:29:59;;;;;;;10.97;7.70;;;3.20;99.90;;;;;;6206857;28;20201;-80
2021/01/15 10:33:05;;;;;;;10.20;6.70;;;3.20;99.90;;;;;;6207637;28;20235;-80
2021/01/15 10:36:09;;;;;;;9.80;7.73;;;3.20;99.90;;;;;;6206462;28;20196;-80
2021/01/15 10:39:12;;;;;;;11.97;7.87;;;3.10;99.90;;;;;;6206793;28;20322;-80
2021/01/15 10:42:14;;;;;;;10.47;7.00;;;3.00;99.90;;;;;;6208313;28;20411;-81
2021/01/15 10:45:15;;;;;;;13.97;8.63;;;2.90;99.90;;;;;;6208698;28;20216;-80
2021/01/15 10:48:17;;;;;;;12.33;7.80;;;2.70;99.90;;;;;;6206839;28;20283;-80
2021/01/15 10:51:19;;;;;;;8.60;6.80;;;2.60;99.90;;;;;;6206662;28;20266;-81
2021/01/15 10:54:22;;;;;;;12.47;7.33;;;2.60;99.90;;;;;;6208292;28;20232;-81
2021/01/15 10:57:24;;;;;;;10.77;7.47;;;2.70;99.90;;;;;;6207591;28;20231;-80
2021/01/15 11:00:26;;;;;;;14.03;7.80;;;2.80;99.90;;;;;;6208412;28;20548;-80
2021/01/15 11:03:27;;;;;;;11.13;7.83;;;2.80;99.90;;;;;;6208352;28;20291;-81
2021/01/15 11:06:29;;;;;;;11.17;7.77;;;2.70;99.90;;;;;;6208392;28;20242;-80
2021/01/15 11:09:32;;;;;;;12.67;7.97;;;2.70;99.90;;;;;;6206888;28;20539;-80
2021/01/15 11:12:41;;;;;;;9.43;6.60;;;2.60;99.90;;;;;;6204949;28;20259;-80
2021/01/15 11:15:43;;;;;;;10.30;7.40;;;2.70;99.90;;;;;;6208208;28;20200;-80
2021/01/15 11:18:45;;;;;;;9.57;6.90;;;2.70;99.90;;;;;;6214010;28;20221;-81
2021/01/15 11:21:48;;;;;;;10.23;7.90;;;2.60;99.90;;;;;;6229461;28;20775;-81
2021/01/15 11:24:52;;;;;;;10.07;6.83;;;2.50;99.90;;;;;;6226601;28;20231;-81
2021/01/15 11:27:54;;;;;;;11.63;8.10;;;2.50;99.90;;;;;;6212187;28;20229;-81
2021/01/15 11:30:56;;;;;;;10.77;7.43;;;2.40;99.90;;;;;;6226182;28;20626;-78
2021/01/15 11:34:00;;;;;;;10.23;7.30;;;2.20;99.90;;;;;;6225406;28;20249;-77
2021/01/15 11:37:01;;;;;;;12.03;7.33;;;2.20;99.90;;;;;;6223885;28;20200;-77
2021/01/15 11:40:07;;;;;;;9.00;6.70;;;2.20;99.90;;;;;;6225843;28;20592;-78
2021/01/15 11:43:09;;;;;;;9.97;7.20;;;2.30;99.90;;;;;;6223431;28;20286;-77
2021/01/15 11:46:12;;;;;;;11.13;7.10;;;2.30;99.90;;;;;;6240377;28;20215;-77
2021/01/15 11:49:24;;;;;;;13.23;8.03;;;2.20;99.90;;;;;;6224251;28;20606;-77
2021/01/15 11:52:26;;;;;;;11.70;7.80;;;2.20;99.90;;;;;;6224767;28;20549;-77
2021/01/15 11:55:29;;;;;;;13.53;8.47;;;2.30;99.90;;;;;;6224966;28;20334;-78
2021/01/15 11:58:31;;;;;;;13.40;8.03;;;2.30;99.90;;;;;;6225473;28;20747;-78
2021/01/15 12:01:33;;;;;;;10.53;8.20;;;2.40;99.90;;;;;;6224426;28;20195;-78
2021/01/15 12:04:35;;;;;;;12.40;8.00;;;2.50;99.90;;;;;;6225287;28;20206;-78
2021/01/15 12:07:38;;;;;;;14.23;8.53;;;2.50;99.90;;;;;;6225418;28;20234;-77
2021/01/15 12:10:40;;;;;;;9.60;7.40;;;2.50;99.90;;;;;;6224870;28;20473;-78
2021/01/15 12:13:41;;;;;;;9.50;7.23;;;2.60;99.90;;;;;;6217908;28;20216;-77
2021/01/15 12:16:44;;;;;;;12.53;8.30;;;2.60;99.90;;;;;;6215531;28;20530;-78
2021/01/15 12:19:46;;;;;;;9.70;7.40;;;2.60;99.90;;;;;;6219364;28;20236;-77
2021/01/15 12:22:48;;;;;;;11.03;7.60;;;2.70;99.90;;;;;;6195048;28;20211;-77
2021/01/15 12:25:50;;;;;;;9.67;7.23;;;2.80;99.90;;;;;;6202561;28;20361;-78
2021/01/15 12:28:53;;;;;;;9.63;6.60;;;3.00;99.90;;;;;;6199614;28;20212;-78
2021/01/15 12:31:56;;;;;;;10.23;7.57;;;3.00;99.90;;;;;;6201240;28;20216;-78
2021/01/15 12:34:59;;;;;;;10.47;7.37;;;2.90;99.90;;;;;;6215431;28;20239;-78
2021/01/15 12:38:06;;;;;;;10.40;7.13;;;2.80;99.90;;;;;;6199144;28;20211;-78
2021/01/15 12:41:11;;;;;;;10.80;7.57;;;2.60;99.90;;;;;;6204397;28;20223;-77
2021/01/15 12:44:22;;;;;;;10.03;7.40;;;2.50;99.90;;;;;;6191945;28;20208;-77
2021/01/15 12:47:25;;;;;;;11.60;7.53;;;2.40;99.90;;;;;;6201942;28;20218;-77
2021/01/15 12:50:28;;;;;;;11.97;7.67;;;2.30;99.90;;;;;;6207105;28;20208;-77
2021/01/15 12:53:30;;;;;;;12.90;8.23;;;2.10;99.90;;;;;;6198355;28;20228;-77
2021/01/15 12:56:36;;;;;;;12.40;7.43;;;2.00;99.90;;;;;;6237665;28;20841;-77
2021/01/15 12:59:40;;;;;;;11.53;8.03;;;1.80;99.90;;;;;;6235414;28;20192;-78
2021/01/15 13:02:42;;;;;;;11.77;7.57;;;1.70;99.90;;;;;;6219067;28;20204;-76
2021/01/15 13:05:45;;;;;;;12.77;7.80;;;1.60;99.90;;;;;;6221590;28;20207;-77
2021/01/15 13:08:48;;;;;;;10.73;7.60;;;1.50;99.90;;;;;;6213581;28;20742;-77
2021/01/15 13:11:51;;;;;;;9.93;7.60;;;1.60;99.90;;;;;;6198020;28;20211;-77
2021/01/15 13:14:55;;;;;;;10.43;8.17;;;1.80;99.90;;;;;;6223423;28;20259;-77
2021/01/15 13:17:59;;;;;;;10.67;7.27;;;1.80;99.90;;;;;;6220190;28;20207;-77
2021/01/15 13:21:03;;;;;;;12.37;7.40;;;1.90;99.90;;;;;;6223433;28;20243;-77
2021/01/15 13:24:08;;;;;;;12.60;7.57;;;2.00;99.90;;;;;;6199145;28;20566;-77
2021/01/15 13:27:11;;;;;;;12.13;7.13;;;2.00;99.90;;;;;;6211886;28;20220;-77
2021/01/15 13:30:14;;;;;;;10.23;7.67;;;2.00;99.90;;;;;;6210924;28;20299;-77
2021/01/15 13:33:36;;;;;;;12.80;7.90;;;1.90;99.90;;;;;;6219564;28;20225;-77
2021/01/15 13:36:41;;;;;;;9.83;7.10;;;1.70;99.90;;;;;;6227159;28;20326;-77
2021/01/15 13:39:43;;;;;;;9.60;7.50;;;1.70;99.90;;;;;;6228328;28;20224;-77
2021/01/15 13:42:44;;;;;;;10.43;7.83;;;1.80;99.90;;;;;;6208219;28;20219;-77
2021/01/15 13:45:46;;;;;;;10.80;7.60;;;1.80;99.90;;;;;;6211411;28;20240;-77
2021/01/15 13:48:49;;;;;;;10.23;7.57;;;1.90;99.90;;;;;;6222393;28;20273;-77
2021/01/15 13:51:52;;;;;;;9.07;7.10;;;1.80;99.90;;;;;;6212993;28;20204;-77
2021/01/15 13:54:55;;;;;;;12.77;8.00;;;1.90;99.90;;;;;;6215124;28;20819;-76
2021/01/15 13:57:57;;;;;;;12.70;7.90;;;2.00;99.90;;;;;;6219497;28;20209;-76
2021/01/15 14:00:59;;;;;;;10.57;8.07;;;2.00;99.90;;;;;;6220059;28;20207;-77
2021/01/15 14:04:01;;;;;;;9.53;7.57;;;1.90;99.90;;;;;;6215963;28;20343;-77
2021/01/15 14:07:03;;;;;;;11.63;7.50;;;1.80;99.90;;;;;;6206575;28;20567;-77
2021/01/15 14:10:20;;;;;;;11.17;7.47;;;1.70;99.90;;;;;;6211761;28;20189;-77
2021/01/15 14:13:23;;;;;;;12.90;7.43;;;1.70;99.90;;;;;;6217083;28;20227;-76
2021/01/15 14:16:29;;;;;;;12.43;8.07;;;1.70;99.90;;;;;;6224293;28;20688;-76
2021/01/15 14:19:31;;;;;;;9.97;7.50;;;1.80;99.90;;;;;;6227786;28;20208;-76
2021/01/15 14:22:34;;;;;;;11.10;7.60;;;1.70;99.90;;;;;;6214353;28;20234;-76
2021/01/15 14:25:36;;;;;;;9.70;7.17;;;1.60;99.90;;;;;;6217892;28;20626;-77
2021/01/15 14:28:38;;;;;;;10.97;8.17;;;1.60;99.90;;;;;;6227768;28;20683;-76
2021/01/15 14:31:40;;;;;;;9.43;7.73;;;1.60;99.90;;;;;;6204564;28;20603;-77
2021/01/15 14:34:45;;;;;;;10.20;7.27;;;1.60;99.90;;;;;;6225829;28;20566;-77
2021/01/15 14:37:49;;;;;;;9.30;7.13;;;1.50;99.90;;;;;;6213623;28;20295;-77
2021/01/15 14:40:52;;;;;;;10.93;7.27;;;1.50;99.90;;;;;;6219353;28;20219;-76
2021/01/15 14:43:54;;;;;;;9.47;7.37;;;1.50;99.90;;;;;;6219633;28;20322;-77
2021/01/15 14:46:56;;;;;;;10.97;7.37;;;1.50;99.90;;;;;;6201034;28;20211;-76
2021/01/15 14:49:58;;;;;;;9.87;6.70;;;1.50;99.90;;;;;;6223215;28;20220;-77
2021/01/15 14:53:01;;;;;;;11.40;7.27;;;1.50;99.90;;;;;;6204444;28;20233;-77
2021/01/15 14:56:03;;;;;;;10.30;7.30;;;1.40;99.90;;;;;;6219537;28;20326;-77
2021/01/15 14:59:05;;;;;;;10.70;7.17;;;1.30;99.90;;;;;;6215598;28;20709;-76
2021/01/15 15:02:07;;;;;;;11.37;7.93;;;1.20;99.90;;;;;;6218925;28;20654;-77
2021/01/15 15:05:13;;;;;;;9.57;6.87;;;1.00;99.90;;;;;;6215312;28;20212;-77
2021/01/15 15:08:15;;;;;;;10.57;6.73;;;0.90;99.90;;;;;;6218895;28;20264;-77
2021/01/15 15:11:22;;;;;;;9.80;6.50;;;0.90;99.90;;;;;;6218189;28;20268;-77
2021/01/15 15:14:25;;;;;;;9.97;7.43;;;0.80;99.90;;;;;;6218682;28;20243;-77
2021/01/15 15:17:28;;;;;;;11.40;7.20;;;0.70;99.90;;;;;;6219225;28;20212;-77
2021/01/15 15:20:30;;;;;;;11.23;7.70;;;0.60;99.90;;;;;;6206086;28;20235;-77
2021/01/15 15:23:33;;;;;;;11.37;7.97;;;0.60;99.90;;;;;;6214063;28;20672;-77
2021/01/15 15:26:35;;;;;;;11.73;8.07;;;0.50;99.90;;;;;;6223679;28;20734;-77
2021/01/15 15:29:37;;;;;;;11.30;8.50;;;0.50;99.90;;;;;;6197551;28;20208;-77
2021/01/15 15:32:39;;;;;;;13.93;9.20;;;0.40;99.90;;;;;;6202175;28;20205;-77
2021/01/15 15:35:42;;;;;;;11.90;7.70;;;0.30;99.90;;;;;;6199184;28;20556;-76
2021/01/15 15:38:48;;;;;;;13.00;8.20;;;0.30;99.90;;;;;;6218674;28;20336;-77
2021/01/15 15:41:54;;;;;;;10.83;7.67;;;0.20;99.90;;;;;;6216636;28;20307;-77
2021/01/15 15:44:57;;;;;;;14.30;9.07;;;0.20;99.90;;;;;;6217191;28;20554;-77
2021/01/15 15:47:58;;;;;;;11.97;8.50;;;0.10;99.90;;;;;;6203133;28;20215;-76
2021/01/15 15:51:01;;;;;;;10.77;7.47;;;0.10;99.90;;;;;;6225321;28;20196;-78
2021/01/15 15:54:03;;;;;;;12.50;8.50;;;0.10;99.90;;;;;;6229523;28;20224;-79
2021/01/15 15:57:06;;;;;;;12.07;7.87;;;0.10;99.90;;;;;;6185966;28;20836;-77
2021/01/15 16:00:08;;;;;;;11.73;8.50;;;0.00;99.90;;;;;;6194416;28;20205;-78
2021/01/15 16:03:15;;;;;;;13.07;8.23;;;0.00;99.90;;;;;;6217790;28;20221;-77